Time;durP1;ratioP1;P1;durP2;ratioP2;P2;SDS_P1;SDS_P2;PMS_P1;PMS_P2;Temp;Humidity;BMP_temperature;BMP_pressure;BME280_temperature;BME280_humidity;BME280_pressure;Samples;Min_cycle;Max_cycle;Signal;HPM_P1;HPM_P2
2022/06/17 00:00:35;;;;;;;3.00;2.70;;;;;;;;;;5065080;28;24459;-46
2022/06/17 00:03:00;;;;;;;3.33;3.03;;;;;;;;;;5080472;28;24465;-47
2022/06/17 00:05:25;;;;;;;3.00;2.80;;;;;;;;;;5061703;28;24435;-47
2022/06/17 00:07:50;;;;;;;3.05;2.85;;;;;;;;;;5084726;28;24479;-47
2022/06/17 00:10:24;;;;;;;3.10;2.90;;;;;;;;;;5073691;28;24472;-46
2022/06/17 00:12:49;;;;;;;3.10;2.90;;;;;;;;;;5068947;28;24889;-47
2022/06/17 00:15:15;;;;;;;3.93;3.00;;;;;;;;;;5078483;28;25009;-47
2022/06/17 00:17:42;;;;;;;3.00;2.50;;;;;;;;;;5082019;28;24425;-47
2022/06/17 00:20:09;;;;;;;2.88;2.67;;;;;;;;;;5074648;28;24968;-47
2022/06/17 00:22:35;;;;;;;2.60;2.40;;;;;;;;;;5069881;28;24427;-47
2022/06/17 00:25:01;;;;;;;3.10;2.50;;;;;;;;;;5071888;28;24491;-47
2022/06/17 00:27:26;;;;;;;2.70;2.50;;;;;;;;;;5075418;28;24931;-48
2022/06/17 00:29:51;;;;;;;2.60;2.40;;;;;;;;;;5083671;28;24422;-47
2022/06/17 00:32:16;;;;;;;2.88;2.60;;;;;;;;;;5069678;28;24422;-47
2022/06/17 00:34:42;;;;;;;3.00;2.70;;;;;;;;;;5077792;28;24887;-46
2022/06/17 00:37:11;;;;;;;2.97;2.77;;;;;;;;;;5078043;28;24422;-48
2022/06/17 00:39:36;;;;;;;2.80;2.60;;;;;;;;;;5065873;28;24442;-47
2022/06/17 00:42:05;;;;;;;3.10;2.30;;;;;;;;;;5066579;28;24419;-47
2022/06/17 00:44:42;;;;;;;2.90;2.70;;;;;;;;;;5063912;28;24443;-47
2022/06/17 00:47:14;;;;;;;2.92;2.70;;;;;;;;;;5069954;28;24422;-47
2022/06/17 00:50:13;;;;;;;3.00;2.60;;;;;;;;;;5078123;28;24422;-45
2022/06/17 00:52:41;;;;;;;2.80;2.60;;;;;;;;;;5047235;28;25046;-47
2022/06/17 00:55:16;;;;;;;2.97;2.78;;;;;;;;;;5069009;28;24430;-47
2022/06/17 00:57:41;;;;;;;2.90;2.70;;;;;;;;;;5078777;28;25052;-48
2022/06/17 01:00:06;;;;;;;2.70;2.50;;;;;;;;;;5080679;28;24479;-46
2022/06/17 01:02:33;;;;;;;2.95;2.72;;;;;;;;;;5075865;28;24437;-46
2022/06/17 01:05:00;;;;;;;2.50;2.30;;;;;;;;;;5065591;28;24487;-48
2022/06/17 01:07:27;;;;;;;2.70;2.50;;;;;;;;;;5086220;28;24422;-47
2022/06/17 01:10:08;;;;;;;3.00;2.80;;;;;;;;;;5070149;28;24450;-47
2022/06/17 01:12:36;;;;;;;2.85;2.65;;;;;;;;;;5067389;28;24845;-46
2022/06/17 01:15:02;;;;;;;2.70;2.50;;;;;;;;;;5063786;28;24866;-47
2022/06/17 01:17:28;;;;;;;3.03;2.83;;;;;;;;;;5069541;28;24423;-47
2022/06/17 01:19:55;;;;;;;3.08;2.88;;;;;;;;;;5073541;28;24572;-47
2022/06/17 01:22:30;;;;;;;2.80;2.60;;;;;;;;;;5066706;28;24418;-47
2022/06/17 01:25:00;;;;;;;2.70;2.50;;;;;;;;;;5061521;28;24885;-47
2022/06/17 01:27:27;;;;;;;2.80;2.60;;;;;;;;;;5074938;28;24522;-47
2022/06/17 01:29:52;;;;;;;3.55;2.85;;;;;;;;;;5073168;28;24513;-47
2022/06/17 01:32:19;;;;;;;2.87;2.63;;;;;;;;;;5070552;28;24499;-47
2022/06/17 01:34:44;;;;;;;3.00;2.50;;;;;;;;;;5072187;28;24422;-47
2022/06/17 01:37:10;;;;;;;2.80;2.60;;;;;;;;;;5069137;28;24888;-46
2022/06/17 01:39:35;;;;;;;2.90;2.70;;;;;;;;;;5059680;28;24483;-46
2022/06/17 01:42:01;;;;;;;2.80;2.50;;;;;;;;;;5085602;28;24994;-47
2022/06/17 01:44:33;;;;;;;2.70;2.50;;;;;;;;;;5068908;28;24979;-48
2022/06/17 01:46:59;;;;;;;2.80;2.60;;;;;;;;;;5078490;28;24442;-46
2022/06/17 01:49:27;;;;;;;3.00;2.70;;;;;;;;;;5068848;28;24431;-47
2022/06/17 01:51:55;;;;;;;2.50;2.30;;;;;;;;;;5085038;28;24414;-47
2022/06/17 01:54:22;;;;;;;2.70;2.50;;;;;;;;;;5069983;28;24461;-46
2022/06/17 01:56:49;;;;;;;2.95;2.70;;;;;;;;;;5079447;28;24434;-46
2022/06/17 01:59:20;;;;;;;2.83;2.63;;;;;;;;;;5070473;28;24454;-47
2022/06/17 02:01:47;;;;;;;2.92;2.72;;;;;;;;;;5073268;28;24867;-47
2022/06/17 02:04:14;;;;;;;2.90;2.60;;;;;;;;;;5067529;28;24434;-47
2022/06/17 02:06:41;;;;;;;2.80;2.60;;;;;;;;;;5065894;28;24415;-47
2022/06/17 02:09:07;;;;;;;2.90;2.70;;;;;;;;;;5062734;28;24430;-47
2022/06/17 02:11:32;;;;;;;2.70;2.50;;;;;;;;;;5072945;28;24429;-47
2022/06/17 02:13:57;;;;;;;2.63;2.43;;;;;;;;;;5078425;28;24470;-46
2022/06/17 02:16:23;;;;;;;2.70;2.50;;;;;;;;;;5073592;28;24500;-47
2022/06/17 02:18:48;;;;;;;2.80;2.60;;;;;;;;;;5068710;28;24839;-46
2022/06/17 02:21:19;;;;;;;2.60;2.40;;;;;;;;;;5070936;28;24515;-47
2022/06/17 02:23:44;;;;;;;2.53;2.30;;;;;;;;;;5077812;28;24465;-46
2022/06/17 02:26:11;;;;;;;2.70;2.50;;;;;;;;;;5065722;28;24485;-47
2022/06/17 02:28:36;;;;;;;3.05;2.75;;;;;;;;;;5069009;28;24816;-47
2022/06/17 02:31:03;;;;;;;2.80;2.60;;;;;;;;;;5077382;28;24444;-47
2022/06/17 02:33:29;;;;;;;2.55;2.35;;;;;;;;;;5080610;28;24426;-47
2022/06/17 02:35:57;;;;;;;3.70;2.70;;;;;;;;;;5063010;28;24430;-47
2022/06/17 02:38:25;;;;;;;2.95;2.75;;;;;;;;;;5067684;28;24429;-46
2022/06/17 02:40:52;;;;;;;2.75;2.55;;;;;;;;;;5057227;28;24518;-47
2022/06/17 02:43:19;;;;;;;2.85;2.60;;;;;;;;;;5066994;28;24567;-47
2022/06/17 02:45:58;;;;;;;3.25;2.50;;;;;;;;;;5065507;28;24449;-47
2022/06/17 02:48:25;;;;;;;2.60;2.40;;;;;;;;;;5064024;28;24584;-46
2022/06/17 02:50:51;;;;;;;2.70;2.50;;;;;;;;;;5061074;28;24434;-47
2022/06/17 02:53:17;;;;;;;2.50;2.30;;;;;;;;;;5060159;28;24417;-48
2022/06/17 02:55:43;;;;;;;3.00;2.80;;;;;;;;;;5060372;28;24427;-45
2022/06/17 02:58:30;;;;;;;3.08;2.78;;;;;;;;;;5069249;28;24806;-47
2022/06/17 03:00:56;;;;;;;6.20;5.70;;;;;;;;;;5064779;28;24418;-46
2022/06/17 03:03:21;;;;;;;4.90;3.50;;;;;;;;;;5061885;28;24437;-46
2022/06/17 03:05:46;;;;;;;3.07;2.77;;;;;;;;;;5062169;28;25062;-46
2022/06/17 03:08:19;;;;;;;2.70;2.50;;;;;;;;;;5062832;28;24426;-47
2022/06/17 03:10:45;;;;;;;2.90;2.70;;;;;;;;;;5079147;28;24584;-47
2022/06/17 03:13:18;;;;;;;3.40;3.10;;;;;;;;;;5070422;28;24477;-48
2022/06/17 03:15:45;;;;;;;2.83;2.60;;;;;;;;;;5080769;28;27080;-47
2022/06/17 03:18:10;;;;;;;2.70;2.50;;;;;;;;;;5073899;28;24431;-47
2022/06/17 03:20:37;;;;;;;3.13;2.60;;;;;;;;;;5074169;28;25008;-47
2022/06/17 03:23:07;;;;;;;3.55;2.60;;;;;;;;;;5066098;28;24433;-47
2022/06/17 03:25:55;;;;;;;2.80;2.60;;;;;;;;;;5080832;28;24979;-47
2022/06/17 03:28:25;;;;;;;3.40;2.40;;;;;;;;;;5071399;28;24494;-47
2022/06/17 03:31:08;;;;;;;2.50;2.30;;;;;;;;;;5084094;28;24422;-47
2022/06/17 03:33:37;;;;;;;4.47;2.60;;;;;;;;;;5071542;28;24988;-46
2022/06/17 03:36:08;;;;;;;3.20;2.60;;;;;;;;;;5080764;28;24525;-46
2022/06/17 03:38:38;;;;;;;2.90;2.47;;;;;;;;;;5071836;28;24502;-47
2022/06/17 03:41:09;;;;;;;3.10;2.80;;;;;;;;;;5059956;28;24425;-46
2022/06/17 03:43:38;;;;;;;2.50;2.30;;;;;;;;;;5067615;28;25014;-46
2022/06/17 03:46:05;;;;;;;2.60;2.40;;;;;;;;;;5074792;28;24465;-46
2022/06/17 03:48:35;;;;;;;2.20;2.00;;;;;;;;;;5086400;28;24446;-46
2022/06/17 03:51:00;;;;;;;2.30;2.10;;;;;;;;;;5063923;28;24426;-46
2022/06/17 03:53:27;;;;;;;2.63;2.40;;;;;;;;;;5076402;28;24410;-45
2022/06/17 03:55:53;;;;;;;2.95;2.60;;;;;;;;;;5076545;28;24542;-45
2022/06/17 03:58:19;;;;;;;2.40;2.20;;;;;;;;;;5077592;28;24421;-46
2022/06/17 04:00:57;;;;;;;2.72;2.22;;;;;;;;;;5067227;28;24996;-45
2022/06/17 04:03:25;;;;;;;2.40;2.20;;;;;;;;;;5070698;28;24534;-46
2022/06/17 04:05:53;;;;;;;2.55;2.35;;;;;;;;;;5072500;28;24426;-46
2022/06/17 04:08:18;;;;;;;2.05;1.95;;;;;;;;;;5082528;28;24419;-45
2022/06/17 04:10:44;;;;;;;2.97;2.42;;;;;;;;;;5084262;28;24425;-46
2022/06/17 04:13:13;;;;;;;2.50;2.20;;;;;;;;;;5082225;28;24426;-46
2022/06/17 04:15:47;;;;;;;3.00;2.10;;;;;;;;;;5066353;28;24458;-46
2022/06/17 04:18:12;;;;;;;2.20;2.05;;;;;;;;;;5070186;28;24868;-45
2022/06/17 04:20:46;;;;;;;2.42;2.22;;;;;;;;;;5067530;28;24437;-45
2022/06/17 04:23:18;;;;;;;2.67;2.17;;;;;;;;;;5069143;28;24426;-46
2022/06/17 04:25:50;;;;;;;3.07;2.47;;;;;;;;;;5059469;28;24530;-46
2022/06/17 04:28:18;;;;;;;3.47;2.28;;;;;;;;;;5063041;28;24463;-46
2022/06/17 04:30:45;;;;;;;2.50;2.25;;;;;;;;;;5060258;28;25200;-47
2022/06/17 04:33:17;;;;;;;2.40;2.20;;;;;;;;;;5060226;28;24516;-46
2022/06/17 04:35:42;;;;;;;2.30;2.10;;;;;;;;;;5071131;28;24430;-45
2022/06/17 04:38:09;;;;;;;2.47;2.28;;;;;;;;;;5052371;28;24476;-46
2022/06/17 04:40:36;;;;;;;2.90;2.13;;;;;;;;;;5054738;28;24510;-46
2022/06/17 04:43:05;;;;;;;2.57;2.37;;;;;;;;;;5064776;28;24513;-46
2022/06/17 04:45:30;;;;;;;2.20;2.00;;;;;;;;;;5079432;28;25005;-46
2022/06/17 04:47:57;;;;;;;4.40;2.60;;;;;;;;;;5080778;28;24565;-46
2022/06/17 04:50:24;;;;;;;4.75;2.60;;;;;;;;;;5079738;28;24425;-47
2022/06/17 04:52:51;;;;;;;2.45;2.25;;;;;;;;;;5074390;28;24423;-47
2022/06/17 04:55:19;;;;;;;2.97;2.63;;;;;;;;;;5072217;28;24972;-46
2022/06/17 04:57:44;;;;;;;3.30;3.00;;;;;;;;;;5056705;28;24558;-47
2022/06/17 05:00:19;;;;;;;2.40;2.20;;;;;;;;;;5076842;28;24417;-47
2022/06/17 05:02:45;;;;;;;2.40;2.20;;;;;;;;;;5076403;28;24494;-47
2022/06/17 05:05:12;;;;;;;2.90;2.50;;;;;;;;;;5066433;28;25350;-47
2022/06/17 05:07:40;;;;;;;2.00;1.80;;;;;;;;;;5073938;28;24986;-47
2022/06/17 05:10:07;;;;;;;2.50;2.10;;;;;;;;;;5057201;28;24403;-47
2022/06/17 05:12:36;;;;;;;2.20;1.93;;;;;;;;;;5068957;28;24500;-47
2022/06/17 05:15:03;;;;;;;2.10;2.00;;;;;;;;;;5058752;28;24465;-47
2022/06/17 05:17:28;;;;;;;2.40;2.20;;;;;;;;;;5068820;28;25126;-47
2022/06/17 05:19:53;;;;;;;2.50;1.90;;;;;;;;;;5051411;28;25282;-47
2022/06/17 05:22:23;;;;;;;2.00;1.80;;;;;;;;;;5066089;28;24426;-46
2022/06/17 05:24:48;;;;;;;3.20;2.20;;;;;;;;;;5076184;28;24464;-45
2022/06/17 05:27:13;;;;;;;2.50;2.10;;;;;;;;;;5067802;28;24402;-45
2022/06/17 05:29:39;;;;;;;2.33;2.23;;;;;;;;;;5067903;28;24940;-45
2022/06/17 05:32:04;;;;;;;3.58;2.20;;;;;;;;;;5066774;28;24494;-45
2022/06/17 05:34:29;;;;;;;2.40;2.20;;;;;;;;;;5067882;28;24390;-45
2022/06/17 05:36:56;;;;;;;2.80;2.50;;;;;;;;;;5064937;28;24426;-45
2022/06/17 05:39:22;;;;;;;2.40;2.20;;;;;;;;;;5067710;28;25418;-46
2022/06/17 05:41:47;;;;;;;2.20;2.00;;;;;;;;;;5065918;28;24473;-47
2022/06/17 05:44:14;;;;;;;2.10;1.90;;;;;;;;;;5067352;28;24471;-46
2022/06/17 05:46:39;;;;;;;3.75;2.20;;;;;;;;;;5066752;28;24796;-46
2022/06/17 05:49:04;;;;;;;2.20;2.00;;;;;;;;;;5067452;28;24929;-46
2022/06/17 05:51:29;;;;;;;2.47;2.10;;;;;;;;;;5063087;28;24422;-46
2022/06/17 05:53:54;;;;;;;5.35;2.40;;;;;;;;;;5067242;28;24395;-46
2022/06/17 05:56:19;;;;;;;3.00;2.00;;;;;;;;;;5067472;28;24383;-45
2022/06/17 05:58:44;;;;;;;2.90;2.00;;;;;;;;;;5067322;28;24525;-46
2022/06/17 06:01:10;;;;;;;4.10;2.13;;;;;;;;;;5056614;28;24770;-45
2022/06/17 06:03:35;;;;;;;2.50;1.93;;;;;;;;;;5077823;28;24426;-45
2022/06/17 06:06:01;;;;;;;1.70;1.60;;;;;;;;;;5078170;28;24634;-45
2022/06/17 06:08:26;;;;;;;1.90;1.80;;;;;;;;;;5086454;28;24518;-46
2022/06/17 06:10:51;;;;;;;2.27;2.00;;;;;;;;;;5085540;28;24571;-45
2022/06/17 06:13:19;;;;;;;3.50;2.20;;;;;;;;;;5067412;28;24947;-47
2022/06/17 06:15:46;;;;;;;2.88;2.35;;;;;;;;;;5064830;28;24426;-46
2022/06/17 06:18:13;;;;;;;1.85;1.75;;;;;;;;;;5065694;28;24514;-45
2022/06/17 06:20:38;;;;;;;2.30;1.92;;;;;;;;;;5059244;28;24476;-46
2022/06/17 06:23:04;;;;;;;2.50;1.77;;;;;;;;;;5066229;28;24438;-45
2022/06/17 06:25:29;;;;;;;2.42;1.70;;;;;;;;;;5067134;28;24596;-45
2022/06/17 06:27:54;;;;;;;2.40;2.20;;;;;;;;;;5061328;28;25012;-45
2022/06/17 06:30:22;;;;;;;2.90;2.05;;;;;;;;;;5068887;28;24863;-46
2022/06/17 06:32:48;;;;;;;2.70;2.10;;;;;;;;;;5069526;28;24472;-46
2022/06/17 06:35:14;;;;;;;1.60;1.50;;;;;;;;;;5063434;28;24812;-45
2022/06/17 06:37:39;;;;;;;2.00;1.55;;;;;;;;;;5070806;28;24971;-46
2022/06/17 06:40:05;;;;;;;2.53;1.85;;;;;;;;;;5070181;28;24445;-46
2022/06/17 06:42:30;;;;;;;2.70;1.90;;;;;;;;;;5066074;28;24984;-46
2022/06/17 06:44:55;;;;;;;1.98;1.50;;;;;;;;;;5060574;28;24518;-46
2022/06/17 06:47:21;;;;;;;3.00;2.10;;;;;;;;;;5066509;28;24947;-45
2022/06/17 06:49:46;;;;;;;1.60;1.50;;;;;;;;;;5066496;28;24383;-45
2022/06/17 06:52:11;;;;;;;3.28;1.50;;;;;;;;;;5064855;28;24418;-45
2022/06/17 06:54:36;;;;;;;2.10;1.58;;;;;;;;;;5066125;28;24911;-46
2022/06/17 06:57:01;;;;;;;1.60;1.50;;;;;;;;;;5066422;28;24513;-46
2022/06/17 06:59:26;;;;;;;1.83;1.40;;;;;;;;;;5066349;28;24481;-46
2022/06/17 07:01:51;;;;;;;1.60;1.50;;;;;;;;;;5064818;28;24948;-45
2022/06/17 07:04:17;;;;;;;2.20;1.80;;;;;;;;;;5066667;28;24397;-46
2022/06/17 07:06:43;;;;;;;1.90;1.70;;;;;;;;;;5066487;28;24406;-46
2022/06/17 07:09:10;;;;;;;1.90;1.75;;;;;;;;;;5064524;28;24413;-46
2022/06/17 07:11:35;;;;;;;1.52;1.42;;;;;;;;;;5065286;28;24399;-46
2022/06/17 07:14:00;;;;;;;3.50;1.60;;;;;;;;;;5065155;28;24422;-46
2022/06/17 07:16:26;;;;;;;1.70;1.60;;;;;;;;;;5066307;28;24413;-46
2022/06/17 07:18:51;;;;;;;2.03;1.80;;;;;;;;;;5066624;28;24737;-46
2022/06/17 07:21:16;;;;;;;2.80;1.70;;;;;;;;;;5066245;28;24469;-46
2022/06/17 07:23:43;;;;;;;3.00;1.70;;;;;;;;;;5064782;28;25095;-46
2022/06/17 07:26:11;;;;;;;1.90;1.40;;;;;;;;;;5066122;28;24434;-47
2022/06/17 07:28:36;;;;;;;2.10;1.80;;;;;;;;;;5066150;28;24816;-47
2022/06/17 07:31:01;;;;;;;2.88;1.90;;;;;;;;;;5066223;28;25023;-47
2022/06/17 07:33:27;;;;;;;4.18;2.17;;;;;;;;;;5064328;28;24465;-46
2022/06/17 07:35:55;;;;;;;2.55;2.20;;;;;;;;;;5066063;28;24408;-46
2022/06/17 07:41:12;;;;;;;2.50;2.00;;;;;;;;;;5044495;28;24455;-46
2022/06/17 07:43:37;;;;;;;2.00;1.80;;;;;;;;;;5064011;28;25043;-46
2022/06/17 07:46:03;;;;;;;3.63;1.90;;;;;;;;;;5066011;28;24571;-46
2022/06/17 07:48:29;;;;;;;2.00;1.75;;;;;;;;;;5063543;28;24478;-46
2022/06/17 07:50:58;;;;;;;2.37;2.10;;;;;;;;;;5065831;28;24557;-46
2022/06/17 07:53:24;;;;;;;2.03;1.60;;;;;;;;;;5066167;28;24425;-47
2022/06/17 07:55:49;;;;;;;2.20;1.70;;;;;;;;;;5067099;28;24488;-47
2022/06/17 07:58:14;;;;;;;2.80;1.93;;;;;;;;;;5069506;28;24398;-47
2022/06/17 08:00:41;;;;;;;2.30;2.10;;;;;;;;;;5061185;28;24832;-47
2022/06/17 08:03:06;;;;;;;3.60;2.20;;;;;;;;;;5047007;28;24520;-47
2022/06/17 08:05:32;;;;;;;3.20;2.03;;;;;;;;;;5060401;28;24541;-47
2022/06/17 08:07:58;;;;;;;2.20;1.80;;;;;;;;;;5066716;28;24464;-47
2022/06/17 08:10:24;;;;;;;1.80;1.70;;;;;;;;;;5069444;28;25015;-47
2022/06/17 08:12:49;;;;;;;2.50;1.70;;;;;;;;;;5069078;28;24941;-46
2022/06/17 08:15:15;;;;;;;2.80;1.70;;;;;;;;;;5067560;28;24450;-45
2022/06/17 08:17:41;;;;;;;1.88;1.77;;;;;;;;;;5069136;28;25002;-46
2022/06/17 08:20:09;;;;;;;2.10;1.90;;;;;;;;;;5066193;28;24436;-46
2022/06/17 08:22:35;;;;;;;3.42;1.75;;;;;;;;;;5068099;28;24471;-46
2022/06/17 08:25:00;;;;;;;2.60;1.60;;;;;;;;;;5069093;28;24836;-46
2022/06/17 08:27:25;;;;;;;2.10;1.73;;;;;;;;;;5069082;28;24402;-46
2022/06/17 08:29:50;;;;;;;2.38;2.10;;;;;;;;;;5068814;28;24426;-46
2022/06/17 08:34:59;;;;;;;4.00;2.20;;;;;;;;;;5069107;28;24425;-46
2022/06/17 08:37:25;;;;;;;2.60;1.80;;;;;;;;;;5068762;28;24936;-46
2022/06/17 08:39:51;;;;;;;2.22;1.80;;;;;;;;;;5068983;28;24386;-46
2022/06/17 08:42:26;;;;;;;1.80;1.50;;;;;;;;;;5068713;28;25023;-46
2022/06/17 08:45:03;;;;;;;2.47;1.93;;;;;;;;;;5066711;28;24542;-46
2022/06/17 08:47:33;;;;;;;2.28;2.08;;;;;;;;;;5068370;28;24508;-47
2022/06/17 08:50:25;;;;;;;1.73;1.63;;;;;;;;;;5068248;28;24410;-46
2022/06/17 08:53:15;;;;;;;3.10;1.73;;;;;;;;;;5068755;28;24405;-46
2022/06/17 08:55:59;;;;;;;2.08;1.70;;;;;;;;;;5068283;28;24434;-46
2022/06/17 08:58:30;;;;;;;1.90;1.70;;;;;;;;;;5068126;28;25299;-45
2022/06/17 09:01:03;;;;;;;2.10;1.90;;;;;;;;;;5068514;28;24419;-47
2022/06/17 09:03:43;;;;;;;2.05;1.85;;;;;;;;;;5068366;28;24497;-46
2022/06/17 09:06:25;;;;;;;3.30;1.40;;;;;;;;;;5067231;28;24825;-46
2022/06/17 09:09:01;;;;;;;2.60;1.60;;;;;;;;;;5067775;28;24399;-46
2022/06/17 09:11:44;;;;;;;4.05;1.75;;;;;;;;;;5068154;28;24403;-46
2022/06/17 09:14:27;;;;;;;1.70;1.60;;;;;;;;;;5068209;28;24803;-46
2022/06/17 09:16:55;;;;;;;2.35;1.85;;;;;;;;;;5066873;28;24776;-46
2022/06/17 09:19:25;;;;;;;3.53;1.60;;;;;;;;;;5047788;28;24399;-46
2022/06/17 09:21:51;;;;;;;1.80;1.70;;;;;;;;;;5048225;28;24391;-46
2022/06/17 09:24:22;;;;;;;2.42;1.80;;;;;;;;;;5047796;28;24402;-46
2022/06/17 09:26:59;;;;;;;3.90;1.80;;;;;;;;;;5047950;28;24407;-46
2022/06/17 09:29:28;;;;;;;2.13;1.70;;;;;;;;;;5065767;28;24441;-47
2022/06/17 09:31:58;;;;;;;1.80;1.70;;;;;;;;;;5067952;28;24550;-47
2022/06/17 09:34:40;;;;;;;1.90;1.50;;;;;;;;;;5067510;28;24470;-47
2022/06/17 09:37:09;;;;;;;2.20;1.50;;;;;;;;;;5067429;28;24398;-47
2022/06/17 09:39:46;;;;;;;2.10;1.40;;;;;;;;;;5065791;28;24849;-46
2022/06/17 09:42:14;;;;;;;1.83;1.63;;;;;;;;;;5066410;28;24423;-47
2022/06/17 09:44:43;;;;;;;1.73;1.60;;;;;;;;;;5047628;28;24435;-47
2022/06/17 09:47:17;;;;;;;3.72;1.90;;;;;;;;;;5062891;28;24429;-47
2022/06/17 09:49:51;;;;;;;1.90;1.30;;;;;;;;;;5066629;28;24841;-47
2022/06/17 09:52:19;;;;;;;2.17;1.60;;;;;;;;;;5067201;28;25329;-47
2022/06/17 09:54:44;;;;;;;1.60;1.50;;;;;;;;;;5067498;28;24403;-47
2022/06/17 09:57:12;;;;;;;3.90;1.60;;;;;;;;;;5067243;28;24394;-47
2022/06/17 09:59:45;;;;;;;2.88;1.70;;;;;;;;;;5065994;28;24789;-47
2022/06/17 10:02:29;;;;;;;1.83;1.63;;;;;;;;;;5046490;28;24519;-47
2022/06/17 10:04:55;;;;;;;1.67;1.58;;;;;;;;;;5046864;28;24411;-47
2022/06/17 10:07:26;;;;;;;1.80;1.70;;;;;;;;;;5046345;28;24402;-47
2022/06/17 10:10:05;;;;;;;1.90;1.80;;;;;;;;;;5060945;28;24511;-47
2022/06/17 10:12:37;;;;;;;1.98;1.63;;;;;;;;;;5067248;28;24773;-47
2022/06/17 10:15:02;;;;;;;2.00;1.80;;;;;;;;;;5067176;28;24398;-47
2022/06/17 10:20:29;;;;;;;1.67;1.33;;;;;;;;;;5064891;28;24577;-44
2022/06/17 10:22:55;;;;;;;1.70;1.40;;;;;;;;;;5066825;28;24936;-46
2022/06/17 10:25:23;;;;;;;1.60;1.50;;;;;;;;;;5066724;28;24442;-46
2022/06/17 10:27:48;;;;;;;1.60;1.50;;;;;;;;;;5066772;28;24438;-45
2022/06/17 10:30:19;;;;;;;1.60;1.50;;;;;;;;;;5064740;28;24446;-45
2022/06/17 10:32:46;;;;;;;1.85;1.75;;;;;;;;;;5066654;28;24900;-46
2022/06/17 10:35:14;;;;;;;1.70;1.60;;;;;;;;;;5067013;28;24395;-45
2022/06/17 10:37:39;;;;;;;2.10;1.90;;;;;;;;;;5066637;28;24981;-46
2022/06/17 10:40:07;;;;;;;2.80;1.90;;;;;;;;;;5064748;28;24402;-46
2022/06/17 10:42:32;;;;;;;1.90;1.80;;;;;;;;;;5066535;28;24832;-46
2022/06/17 10:44:59;;;;;;;2.40;2.20;;;;;;;;;;5066668;28;24976;-47
2022/06/17 10:47:36;;;;;;;2.25;1.60;;;;;;;;;;5066460;28;24540;-47
2022/06/17 10:50:05;;;;;;;1.77;1.60;;;;;;;;;;5066620;28;25072;-47
2022/06/17 10:52:34;;;;;;;3.40;1.70;;;;;;;;;;5051311;28;24426;-47
2022/06/17 10:55:01;;;;;;;1.90;1.40;;;;;;;;;;5046546;28;24426;-47
2022/06/17 10:57:32;;;;;;;2.50;1.40;;;;;;;;;;5046550;28;24474;-47
2022/06/17 10:59:57;;;;;;;1.60;1.50;;;;;;;;;;5046429;28;24407;-47
2022/06/17 11:02:25;;;;;;;2.13;1.93;;;;;;;;;;5055552;28;24423;-47
2022/06/17 11:04:51;;;;;;;2.50;1.50;;;;;;;;;;5066622;28;24415;-47
2022/06/17 11:07:40;;;;;;;1.80;1.70;;;;;;;;;;5066364;28;24399;-47
2022/06/17 11:10:16;;;;;;;1.80;1.60;;;;;;;;;;5060269;28;24418;-48
2022/06/17 11:12:43;;;;;;;1.60;1.50;;;;;;;;;;5064521;28;24429;-47
2022/06/17 11:15:31;;;;;;;1.92;1.60;;;;;;;;;;5066415;28;24643;-47
2022/06/17 11:18:14;;;;;;;1.90;1.63;;;;;;;;;;5054145;28;24430;-48
2022/06/17 11:20:39;;;;;;;1.40;1.30;;;;;;;;;;5058564;28;24770;-46
2022/06/17 11:23:07;;;;;;;1.40;1.30;;;;;;;;;;5052444;28;24429;-47
2022/06/17 11:25:32;;;;;;;1.70;1.60;;;;;;;;;;5066322;28;24418;-46
2022/06/17 11:28:07;;;;;;;1.80;1.70;;;;;;;;;;5066209;28;24959;-47
2022/06/17 11:30:34;;;;;;;1.75;1.65;;;;;;;;;;5068819;28;24836;-46
2022/06/17 11:33:00;;;;;;;2.00;1.70;;;;;;;;;;5068522;28;24399;-46
2022/06/17 11:35:28;;;;;;;1.80;1.70;;;;;;;;;;5069596;28;24776;-46
2022/06/17 11:37:54;;;;;;;1.80;1.70;;;;;;;;;;5070010;28;24494;-46
2022/06/17 11:40:21;;;;;;;2.08;1.70;;;;;;;;;;5069816;28;24545;-46
2022/06/17 11:42:53;;;;;;;1.60;1.50;;;;;;;;;;5069451;28;24386;-46
2022/06/17 11:45:31;;;;;;;2.20;1.67;;;;;;;;;;5067524;28;24964;-46
2022/06/17 11:48:01;;;;;;;2.10;1.90;;;;;;;;;;5069838;28;24402;-46
2022/06/17 11:50:31;;;;;;;1.40;1.30;;;;;;;;;;5069450;28;24422;-47
2022/06/17 11:53:12;;;;;;;2.47;1.70;;;;;;;;;;5069737;28;24383;-47
2022/06/17 11:55:47;;;;;;;2.05;1.65;;;;;;;;;;5067898;28;24600;-46
2022/06/17 11:58:14;;;;;;;1.80;1.70;;;;;;;;;;5069462;28;24961;-46
2022/06/17 12:01:02;;;;;;;2.80;1.73;;;;;;;;;;5062800;28;24581;-46
2022/06/17 12:03:30;;;;;;;1.40;1.30;;;;;;;;;;5048734;28;24428;-47
2022/06/17 12:05:59;;;;;;;1.60;1.50;;;;;;;;;;5060037;28;24833;-47
2022/06/17 12:08:28;;;;;;;1.47;1.33;;;;;;;;;;5069268;28;24405;-47
2022/06/17 12:10:55;;;;;;;1.50;1.40;;;;;;;;;;5069279;28;24390;-47
2022/06/17 12:13:26;;;;;;;1.40;1.30;;;;;;;;;;5069268;28;24411;-48
2022/06/17 12:15:54;;;;;;;1.50;1.40;;;;;;;;;;5068530;28;24422;-47
2022/06/17 12:18:24;;;;;;;2.30;1.45;;;;;;;;;;5069271;28;24417;-46
2022/06/17 12:20:57;;;;;;;1.80;1.70;;;;;;;;;;5069120;28;24945;-46
2022/06/17 12:23:29;;;;;;;1.40;1.30;;;;;;;;;;5068873;28;24407;-47
2022/06/17 12:25:57;;;;;;;1.60;1.50;;;;;;;;;;5067242;28;24436;-46
2022/06/17 12:28:28;;;;;;;1.40;1.30;;;;;;;;;;5069060;28;25008;-46
2022/06/17 12:31:02;;;;;;;2.03;1.50;;;;;;;;;;5069204;28;24795;-46
2022/06/17 12:33:35;;;;;;;1.75;1.65;;;;;;;;;;5068726;28;24477;-46
2022/06/17 12:36:04;;;;;;;2.70;1.70;;;;;;;;;;5069094;28;24395;-47
2022/06/17 12:38:30;;;;;;;1.98;1.60;;;;;;;;;;5068190;28;24484;-46
2022/06/17 12:41:12;;;;;;;1.90;1.60;;;;;;;;;;5068614;28;24395;-47
2022/06/17 12:43:44;;;;;;;1.60;1.50;;;;;;;;;;5068605;28;24951;-45
2022/06/17 12:46:15;;;;;;;2.13;1.50;;;;;;;;;;5068362;28;24418;-46
2022/06/17 12:48:49;;;;;;;1.60;1.50;;;;;;;;;;5066608;28;24433;-46
2022/06/17 12:54:10;;;;;;;1.52;1.42;;;;;;;;;;5068633;28;24429;-46
2022/06/17 12:56:51;;;;;;;2.10;1.67;;;;;;;;;;5068410;28;24948;-46
2022/06/17 12:59:19;;;;;;;1.80;1.40;;;;;;;;;;5066366;28;24488;-46
2022/06/17 13:01:50;;;;;;;1.52;1.42;;;;;;;;;;5068435;28;24410;-46
2022/06/17 13:04:34;;;;;;;1.60;1.50;;;;;;;;;;5068213;28;24433;-46
2022/06/17 13:07:14;;;;;;;1.63;1.50;;;;;;;;;;5068048;28;24433;-50
2022/06/17 13:09:39;;;;;;;2.00;1.30;;;;;;;;;;5066255;28;24427;-45
2022/06/17 13:12:23;;;;;;;1.70;1.37;;;;;;;;;;5067819;28;24401;-45
2022/06/17 13:15:10;;;;;;;1.63;1.50;;;;;;;;;;5068189;28;24391;-46
2022/06/17 13:17:40;;;;;;;2.60;1.20;;;;;;;;;;5067834;28;25026;-45
2022/06/17 13:20:08;;;;;;;1.50;1.40;;;;;;;;;;5066096;28;24422;-47
2022/06/17 13:22:50;;;;;;;1.95;1.75;;;;;;;;;;5067388;28;24495;-45
2022/06/17 13:25:34;;;;;;;1.55;1.45;;;;;;;;;;5067962;28;24422;-45
2022/06/17 13:28:18;;;;;;;2.05;1.50;;;;;;;;;;5067569;28;24414;-46
2022/06/17 13:30:54;;;;;;;1.75;1.20;;;;;;;;;;5067668;28;24796;-46
2022/06/17 13:33:28;;;;;;;1.70;1.40;;;;;;;;;;5065183;28;25168;-46
2022/06/17 13:36:25;;;;;;;2.00;1.50;;;;;;;;;;5060998;28;24459;-46
2022/06/17 13:39:00;;;;;;;2.10;1.50;;;;;;;;;;5025486;28;24439;-47
2022/06/17 13:41:29;;;;;;;1.20;1.10;;;;;;;;;;5065726;28;24423;-46
2022/06/17 13:44:00;;;;;;;1.40;1.30;;;;;;;;;;5064660;28;24435;-46
2022/06/17 13:46:28;;;;;;;1.57;1.47;;;;;;;;;;5065511;28;25031;-46
2022/06/17 13:48:59;;;;;;;2.95;1.35;;;;;;;;;;5064893;28;24620;-45
2022/06/17 13:51:27;;;;;;;1.80;1.27;;;;;;;;;;5061260;28;24529;-46
2022/06/17 13:54:11;;;;;;;1.27;1.10;;;;;;;;;;5064117;28;24434;-46
2022/06/17 13:56:58;;;;;;;1.50;1.30;;;;;;;;;;5061680;28;24431;-46
2022/06/17 13:59:32;;;;;;;2.40;1.50;;;;;;;;;;5067981;28;24422;-45
2022/06/17 14:02:27;;;;;;;1.70;1.40;;;;;;;;;;5067798;28;24557;-47
2022/06/17 14:05:01;;;;;;;1.42;1.33;;;;;;;;;;5034561;28;24641;-46
2022/06/17 14:07:44;;;;;;;1.30;1.20;;;;;;;;;;5067242;28;24451;-46
2022/06/17 14:10:25;;;;;;;1.83;1.33;;;;;;;;;;5065974;28;24426;-46
2022/06/17 14:12:50;;;;;;;1.60;1.50;;;;;;;;;;5067305;28;24431;-46
2022/06/17 14:15:17;;;;;;;3.30;1.30;;;;;;;;;;5065353;28;24972;-45
2022/06/17 14:17:44;;;;;;;1.30;1.20;;;;;;;;;;5065158;28;25019;-47
2022/06/17 14:20:28;;;;;;;1.50;1.40;;;;;;;;;;5057491;28;24569;-46
2022/06/17 14:23:02;;;;;;;3.10;1.30;;;;;;;;;;5045109;28;24415;-46
2022/06/17 14:25:44;;;;;;;1.40;1.30;;;;;;;;;;5046345;28;24439;-46
2022/06/17 14:28:29;;;;;;;1.33;1.23;;;;;;;;;;5046501;28;24383;-48
2022/06/17 14:31:07;;;;;;;2.80;1.40;;;;;;;;;;5046373;28;24933;-46
2022/06/17 14:33:38;;;;;;;1.40;1.30;;;;;;;;;;5046378;28;24379;-47
2022/06/17 14:36:07;;;;;;;2.13;1.20;;;;;;;;;;5046642;28;24402;-46
2022/06/17 14:38:33;;;;;;;1.13;1.02;;;;;;;;;;5056651;28;24983;-47
2022/06/17 14:43:48;;;;;;;1.20;1.10;;;;;;;;;;5066232;28;25014;-46
2022/06/17 14:46:13;;;;;;;1.30;1.20;;;;;;;;;;5066665;28;24962;-46
2022/06/17 14:48:45;;;;;;;1.70;1.60;;;;;;;;;;5065759;28;24522;-46
2022/06/17 14:51:16;;;;;;;2.97;2.67;;;;;;;;;;5066384;28;24478;-47
2022/06/17 14:53:49;;;;;;;1.45;1.35;;;;;;;;;;5066555;28;24418;-46
2022/06/17 14:56:14;;;;;;;1.88;1.77;;;;;;;;;;5066713;28;24545;-46
2022/06/17 14:58:59;;;;;;;1.40;1.30;;;;;;;;;;5064659;28;24517;-46
2022/06/17 15:01:35;;;;;;;1.80;1.10;;;;;;;;;;5066510;28;24781;-46
2022/06/17 15:04:03;;;;;;;3.13;1.50;;;;;;;;;;5068859;28;24402;-46
2022/06/17 15:06:31;;;;;;;1.57;1.40;;;;;;;;;;5070375;28;24979;-45
2022/06/17 15:08:57;;;;;;;1.37;1.27;;;;;;;;;;5068909;28;24438;-46
2022/06/17 15:11:24;;;;;;;1.63;1.10;;;;;;;;;;5068284;28;24761;-46